createdAt,value
2018-08-09T00:03:12.346Z,20.50
2018-08-09T00:11:29.048Z,20.50
2018-08-09T00:15:37.364Z,20.40
2018-08-09T00:19:45.678Z,20.50
2018-08-09T00:23:54.035Z,20.50
2018-08-09T00:28:02.322Z,20.60
2018-08-09T00:32:10.654Z,20.60
2018-08-09T00:36:18.955Z,20.70
2018-08-09T00:40:27.269Z,20.70
2018-08-09T00:44:35.589Z,20.60
2018-08-09T00:48:43.895Z,20.70
2018-08-09T00:52:52.190Z,20.70
2018-08-09T00:57:00.511Z,20.60
2018-08-09T01:01:08.802Z,20.60
2018-08-09T01:05:17.113Z,20.50
2018-08-09T01:09:25.383Z,20.50
2018-08-09T01:13:33.690Z,20.50
2018-08-09T01:17:42.164Z,20.50
2018-08-09T01:21:50.489Z,20.50
2018-08-09T01:25:58.773Z,20.40
2018-08-09T01:30:07.154Z,20.30
2018-08-09T01:34:15.421Z,20.20
2018-08-09T01:38:23.807Z,20.20
2018-08-09T01:42:43.688Z,20.20
2018-08-09T01:46:52.087Z,20.10
2018-08-09T01:51:00.408Z,20.10
2018-08-09T01:55:08.741Z,19.90
2018-08-09T01:59:17.076Z,19.80
2018-08-09T02:03:25.464Z,19.70
2018-08-09T02:07:33.767Z,19.80
2018-08-09T02:11:42.135Z,19.80
2018-08-09T02:19:58.556Z,19.80
2018-08-09T02:24:06.893Z,19.70
2018-08-09T02:28:15.237Z,19.60
2018-08-09T02:32:23.540Z,19.60
2018-08-09T02:36:31.892Z,19.50
2018-08-09T02:40:40.239Z,19.50
2018-08-09T02:44:48.615Z,19.40
2018-08-09T02:48:56.972Z,19.40
2018-08-09T02:53:05.357Z,19.40
2018-08-09T02:57:13.828Z,19.40
2018-08-09T03:01:22.174Z,19.40
2018-08-09T03:05:30.464Z,19.30
2018-08-09T03:09:38.833Z,19.30
2018-08-09T03:13:47.182Z,19.30
2018-08-09T03:17:55.575Z,19.20
2018-08-09T03:22:03.902Z,19.20
2018-08-09T03:26:12.209Z,19.20
2018-08-09T03:30:20.598Z,19.20
2018-08-09T03:34:28.931Z,19.20
2018-08-09T03:38:37.303Z,19.30
2018-08-09T03:42:45.758Z,19.30
2018-08-09T03:46:54.120Z,19.30
2018-08-09T03:51:02.504Z,19.20
2018-08-09T03:55:10.861Z,19.20
2018-08-09T03:59:19.181Z,19.20
2018-08-09T04:03:27.507Z,19.30
2018-08-09T04:07:35.870Z,19.30
2018-08-09T04:11:44.245Z,19.40
2018-08-09T04:15:52.524Z,19.30
2018-08-09T04:20:00.835Z,19.20
2018-08-09T04:24:09.181Z,19.30
2018-08-09T04:28:17.555Z,19.30
2018-08-09T04:32:25.921Z,19.40
2018-08-09T04:36:34.245Z,19.50
2018-08-09T04:40:42.556Z,19.50
2018-08-09T04:44:50.871Z,19.50
2018-08-09T04:48:59.201Z,19.50
2018-08-09T04:53:07.597Z,19.70
2018-08-09T04:57:15.934Z,19.50
2018-08-09T05:01:24.275Z,19.50
2018-08-09T05:05:32.613Z,19.60
2018-08-09T05:09:40.966Z,19.60
2018-08-09T05:13:49.302Z,19.60
2018-08-09T05:17:57.649Z,19.80
2018-08-09T05:22:06.461Z,19.80
2018-08-09T05:26:14.809Z,19.80
2018-08-09T05:30:23.192Z,19.80
2018-08-09T05:34:31.575Z,19.80
2018-08-09T05:38:39.871Z,19.90
2018-08-09T05:42:48.192Z,20.00
2018-08-09T05:46:56.552Z,20.10
2018-08-09T05:51:04.933Z,20.00
2018-08-09T05:55:13.294Z,20.10
2018-08-09T05:59:21.620Z,20.10
2018-08-09T06:03:30.020Z,20.20
2018-08-09T06:07:38.428Z,20.30
2018-08-09T06:11:46.788Z,20.50
2018-08-09T06:15:55.219Z,20.40
2018-08-09T06:20:03.634Z,20.50
2018-08-09T06:24:12.012Z,20.60
2018-08-09T06:32:28.551Z,20.60
2018-08-09T06:36:36.923Z,20.70
2018-08-09T06:40:45.337Z,20.70
2018-08-09T06:44:53.684Z,20.90
2018-08-09T06:49:02.065Z,21.00
2018-08-09T06:53:10.410Z,21.10
2018-08-09T07:01:26.831Z,21.30
2018-08-09T07:05:35.147Z,21.30
2018-08-09T07:09:43.491Z,21.30
2018-08-09T07:13:51.841Z,21.50
2018-08-09T07:18:00.193Z,21.50
2018-08-09T07:22:08.514Z,21.50
2018-08-09T07:26:16.898Z,21.70
2018-08-09T07:30:25.189Z,21.70
2018-08-09T07:34:33.624Z,21.70
2018-08-09T07:38:42.060Z,21.80
2018-08-09T07:42:50.397Z,21.90
2018-08-09T07:46:58.743Z,22.00
2018-08-09T07:51:07.146Z,22.20
2018-08-09T07:55:15.427Z,22.20
2018-08-09T07:59:23.775Z,22.30
2018-08-09T08:03:32.162Z,22.30
2018-08-09T08:07:40.497Z,22.60
2018-08-09T08:15:57.347Z,23.10
2018-08-09T08:20:05.708Z,23.10
2018-08-09T08:24:14.007Z,23.40
2018-08-09T08:28:22.494Z,23.60
2018-08-09T08:32:30.814Z,23.70
2018-08-09T08:36:39.239Z,24.00
2018-08-09T08:40:47.682Z,24.30
2018-08-09T08:44:56.009Z,24.50
2018-08-09T08:49:04.502Z,24.50
2018-08-09T08:53:12.885Z,24.60
2018-08-09T08:57:21.187Z,24.60
2018-08-09T09:01:29.524Z,24.70
2018-08-09T09:05:38.019Z,24.80
2018-08-09T09:09:46.334Z,25.10
2018-08-09T09:13:54.684Z,25.40
2018-08-09T09:18:03.093Z,25.50
2018-08-09T09:22:11.490Z,25.60
2018-08-09T09:26:19.844Z,25.50
2018-08-09T09:30:28.183Z,25.30
2018-08-09T09:34:36.520Z,25.30
2018-08-09T09:38:44.879Z,25.10
2018-08-09T09:42:53.284Z,25.00
2018-08-09T09:47:01.709Z,24.80
2018-08-09T09:51:10.076Z,24.50
2018-08-09T09:55:18.374Z,24.40
2018-08-09T09:59:26.693Z,24.20
2018-08-09T10:03:35.030Z,24.00
2018-08-09T10:07:43.461Z,23.70
2018-08-09T10:11:51.813Z,23.70
2018-08-09T10:16:00.192Z,23.80
2018-08-09T10:20:09.185Z,23.80
2018-08-09T10:24:17.551Z,24.00
2018-08-09T10:28:25.842Z,24.30
2018-08-09T10:32:34.215Z,24.20
2018-08-09T10:36:42.639Z,24.20
2018-08-09T10:40:50.980Z,24.50
2018-08-09T10:44:59.346Z,24.70
2018-08-09T10:49:07.922Z,24.70
2018-08-09T10:53:16.281Z,24.70
2018-08-09T10:57:24.612Z,24.70
2018-08-09T11:01:32.955Z,24.60
2018-08-09T11:05:41.332Z,24.60
2018-08-09T11:09:49.700Z,24.80
2018-08-09T11:13:58.018Z,25.30
2018-08-09T11:18:06.327Z,25.70
2018-08-09T11:22:14.653Z,26.00
2018-08-09T11:26:22.990Z,26.00
2018-08-09T11:30:31.260Z,26.10
2018-08-09T11:34:39.597Z,26.30
2018-08-09T11:38:47.981Z,26.40
2018-08-09T11:42:56.329Z,26.90
2018-08-09T11:47:04.702Z,26.90
2018-08-09T11:51:13.119Z,26.90
2018-08-09T11:55:21.434Z,27.00
2018-08-09T11:59:29.724Z,27.10
2018-08-09T12:03:38.136Z,27.20
2018-08-09T12:07:46.559Z,27.20
2018-08-09T12:11:56.406Z,27.30
2018-08-09T12:16:04.790Z,27.20
2018-08-09T12:20:13.142Z,27.10
2018-08-09T12:24:21.613Z,27.10
2018-08-09T12:28:29.933Z,27.00
2018-08-09T12:32:38.309Z,27.00
2018-08-09T12:36:46.734Z,27.10
2018-08-09T12:40:55.105Z,27.30
2018-08-09T12:45:03.530Z,27.20
2018-08-09T12:49:11.993Z,27.10
2018-08-09T12:53:20.342Z,27.00
2018-08-09T12:57:28.734Z,27.00
2018-08-09T13:01:37.096Z,26.80
2018-08-09T13:05:45.483Z,26.70
2018-08-09T13:09:53.833Z,26.70
2018-08-09T13:14:02.180Z,26.50
2018-08-09T13:18:10.528Z,26.20
2018-08-09T13:22:18.911Z,26.20
2018-08-09T13:26:27.280Z,25.90
2018-08-09T13:30:35.601Z,25.80
2018-08-09T13:34:43.955Z,25.70
2018-08-09T13:38:52.310Z,25.60
2018-08-09T13:43:00.745Z,25.40
2018-08-09T13:47:09.136Z,25.50
2018-08-09T13:51:17.501Z,25.70
2018-08-09T13:55:25.858Z,25.70
2018-08-09T13:59:34.194Z,25.90
2018-08-09T14:03:42.545Z,26.20
2018-08-09T14:07:50.874Z,26.50
2018-08-09T14:11:59.304Z,26.60
2018-08-09T14:16:08.151Z,26.70
2018-08-09T14:20:17.828Z,26.50
2018-08-09T14:28:34.460Z,26.80
2018-08-09T14:32:43.244Z,26.60
2018-08-09T14:36:51.671Z,26.50
2018-08-09T14:41:00.039Z,26.30
2018-08-09T14:45:11.496Z,26.20
2018-08-09T14:49:19.890Z,26.10
2018-08-09T14:53:28.260Z,26.10
2018-08-09T14:57:36.725Z,26.10
2018-08-09T15:01:45.464Z,26.10
2018-08-09T15:05:53.800Z,26.00
2018-08-09T15:10:02.285Z,25.80
2018-08-09T15:14:11.175Z,25.80
2018-08-09T15:18:19.559Z,25.70
2018-08-09T15:22:27.960Z,25.60
2018-08-09T15:26:36.269Z,25.60
2018-08-09T15:30:44.656Z,25.50
2018-08-09T15:34:53.036Z,25.30
2018-08-09T15:39:01.508Z,25.20
2018-08-09T15:43:09.856Z,25.10
2018-08-09T15:47:18.421Z,25.10
2018-08-09T15:51:26.726Z,25.10
2018-08-09T15:55:35.097Z,25.30
2018-08-09T15:59:43.855Z,25.40
2018-08-09T16:03:52.696Z,25.50
2018-08-09T16:08:01.051Z,25.60
2018-08-09T16:12:09.425Z,25.70
2018-08-09T16:16:17.812Z,25.80
2018-08-09T16:20:26.141Z,25.70
2018-08-09T16:24:34.529Z,25.70
2018-08-09T16:28:42.954Z,25.70
2018-08-09T16:32:51.341Z,25.70
2018-08-09T16:36:59.718Z,25.70
2018-08-09T16:41:08.093Z,25.80
2018-08-09T16:45:17.677Z,25.90
2018-08-09T16:49:26.047Z,25.70
2018-08-09T16:53:34.381Z,25.80
2018-08-09T16:57:43.012Z,25.80
2018-08-09T17:01:51.344Z,25.80
2018-08-09T17:05:59.711Z,25.80
2018-08-09T17:10:09.358Z,25.90
2018-08-09T17:14:17.743Z,26.00
2018-08-09T17:18:26.141Z,25.90
2018-08-09T17:22:34.462Z,25.80
2018-08-09T17:26:42.917Z,25.60
2018-08-09T17:30:51.265Z,25.60
2018-08-09T17:34:59.583Z,25.50
2018-08-09T17:39:10.573Z,25.20
2018-08-09T17:43:18.954Z,23.80
2018-08-09T17:51:35.511Z,22.50
2018-08-09T17:55:43.852Z,22.30
2018-08-09T17:59:52.198Z,22.10
2018-08-09T18:04:00.550Z,22.00
2018-08-09T18:08:08.991Z,22.00
2018-08-09T18:12:17.408Z,21.90
2018-08-09T18:16:25.838Z,21.80
2018-08-09T18:20:36.042Z,21.70
2018-08-09T18:24:44.372Z,21.70
2018-08-09T18:28:52.707Z,21.60
2018-08-09T18:33:01.048Z,21.70
2018-08-09T18:37:10.072Z,21.70
2018-08-09T18:41:18.467Z,21.70
2018-08-09T18:45:26.861Z,21.70
2018-08-09T18:49:35.320Z,21.60
2018-08-09T18:53:43.674Z,21.50
2018-08-09T18:57:52.159Z,21.40
2018-08-09T19:02:00.506Z,21.40
2018-08-09T19:06:08.895Z,21.30
2018-08-09T19:10:19.898Z,21.30
2018-08-09T19:14:28.983Z,21.30
2018-08-09T19:18:37.392Z,21.20
2018-08-09T19:22:45.899Z,21.30
2018-08-09T19:26:54.306Z,21.40
2018-08-09T19:31:02.608Z,21.20
2018-08-09T19:35:12.343Z,21.20
2018-08-09T19:39:20.849Z,21.10
2018-08-09T19:43:29.271Z,21.20
2018-08-09T19:47:37.941Z,21.20
2018-08-09T19:51:46.288Z,21.10
2018-08-09T19:55:54.727Z,21.00
2018-08-09T20:00:03.358Z,21.00
2018-08-09T20:04:11.675Z,20.90
2018-08-09T20:08:19.987Z,20.80
2018-08-09T20:12:28.334Z,20.80
2018-08-09T20:16:36.687Z,20.80
2018-08-09T20:20:45.048Z,20.80
2018-08-09T20:24:53.416Z,20.70
2018-08-09T20:29:01.837Z,20.70
2018-08-09T20:33:10.735Z,20.50
2018-08-09T20:37:20.098Z,20.50
2018-08-09T20:41:28.477Z,20.40
2018-08-09T20:45:36.862Z,20.40
2018-08-09T20:49:45.216Z,20.30
2018-08-09T20:53:53.724Z,20.20
2018-08-09T20:58:02.106Z,19.90
2018-08-09T21:02:10.430Z,19.90
2018-08-09T21:06:18.784Z,19.70
2018-08-09T21:10:27.591Z,19.60
2018-08-09T21:14:35.900Z,19.50
2018-08-09T21:18:45.149Z,19.50
2018-08-09T21:22:53.524Z,19.50
2018-08-09T21:27:01.890Z,19.50
2018-08-09T21:31:10.248Z,19.40
2018-08-09T21:39:26.650Z,19.30
2018-08-09T21:43:34.997Z,19.20
2018-08-09T21:47:43.342Z,19.20
2018-08-09T21:51:51.703Z,19.10
2018-08-09T21:56:00.031Z,19.10
2018-08-09T22:00:13.760Z,19.20
2018-08-09T22:04:22.096Z,19.10
2018-08-09T22:08:35.885Z,18.90
2018-08-09T22:12:49.616Z,18.80
2018-08-09T22:17:03.477Z,18.60
2018-08-09T22:21:17.188Z,18.70
2018-08-09T22:25:25.549Z,18.80
2018-08-09T22:29:33.905Z,18.60
2018-08-09T22:33:42.208Z,18.40
2018-08-09T22:37:50.574Z,18.40
2018-08-09T22:41:58.926Z,18.50
2018-08-09T22:46:07.261Z,18.30
2018-08-09T22:50:15.657Z,17.90
2018-08-09T22:54:24.028Z,17.60
2018-08-09T22:58:32.375Z,17.60
2018-08-09T23:02:40.689Z,17.80
2018-08-09T23:06:49.034Z,17.80
2018-08-09T23:10:57.400Z,17.90
2018-08-09T23:15:06.403Z,18.00
2018-08-09T23:19:14.762Z,18.00
2018-08-09T23:23:23.199Z,18.00
2018-08-09T23:27:31.610Z,17.90
2018-08-09T23:31:39.958Z,17.90
2018-08-09T23:35:48.380Z,17.80
2018-08-09T23:39:56.793Z,17.80
2018-08-09T23:44:05.154Z,17.80
2018-08-09T23:48:13.500Z,17.70
2018-08-09T23:52:21.867Z,17.70
2018-08-09T23:56:30.224Z,17.60
